createdAt,value
2022-12-06T00:01:32.475Z,4.84
2022-12-06T00:06:40.814Z,4.76
2022-12-06T00:11:43.478Z,4.86
2022-12-06T00:16:44.797Z,4.83
2022-12-06T00:21:47.244Z,4.84
2022-12-06T00:26:51.052Z,4.88
2022-12-06T00:31:52.312Z,4.82
2022-12-06T00:36:53.257Z,4.87
2022-12-06T00:41:57.358Z,4.96
2022-12-06T00:46:58.244Z,4.96
2022-12-06T00:51:59.099Z,4.90
2022-12-06T00:57:01.404Z,4.79
2022-12-06T01:02:02.309Z,4.76
2022-12-06T01:07:03.190Z,4.85
2022-12-06T01:12:05.511Z,4.83
2022-12-06T01:17:06.361Z,4.85
2022-12-06T01:22:07.182Z,4.69
2022-12-06T01:27:09.311Z,4.76
2022-12-06T01:32:10.167Z,4.76
2022-12-06T01:37:10.984Z,4.67
2022-12-06T01:42:14.312Z,4.66
2022-12-06T01:47:19.723Z,4.53
2022-12-06T01:52:24.767Z,4.48
2022-12-06T01:57:27.099Z,4.49
2022-12-06T02:02:28.135Z,4.48
2022-12-06T02:07:30.588Z,4.48
2022-12-06T02:12:32.770Z,4.40
2022-12-06T02:17:42.926Z,4.43
2022-12-06T02:23:14.358Z,4.49
2022-12-06T02:28:32.782Z,4.49
2022-12-06T02:33:42.073Z,4.50
2022-12-06T02:38:48.161Z,4.36
2022-12-06T02:43:54.852Z,4.28
2022-12-06T02:48:59.537Z,4.30
2022-12-06T02:54:03.628Z,4.36
2022-12-06T02:59:05.669Z,4.40
2022-12-06T03:04:31.614Z,4.42
2022-12-06T03:09:49.468Z,4.43
2022-12-06T03:14:57.005Z,4.42
2022-12-06T03:20:05.999Z,4.44
2022-12-06T03:25:09.125Z,4.40
2022-12-06T03:30:13.808Z,4.44
2022-12-06T03:35:20.671Z,4.49
2022-12-06T03:40:25.630Z,4.47
2022-12-06T03:45:35.217Z,4.48
2022-12-06T03:50:42.268Z,4.47
2022-12-06T03:55:43.464Z,4.49
2022-12-06T04:00:44.234Z,4.44
2022-12-06T04:05:46.405Z,4.45
2022-12-06T04:10:47.181Z,4.46
2022-12-06T04:15:48.190Z,4.42
2022-12-06T04:21:15.345Z,4.46
2022-12-06T04:26:19.060Z,4.34
2022-12-06T04:31:37.408Z,4.36
2022-12-06T04:36:57.792Z,4.37
2022-12-06T04:42:16.299Z,4.37
2022-12-06T04:47:17.254Z,4.27
2022-12-06T04:52:19.536Z,4.34
2022-12-06T04:57:20.331Z,4.24
2022-12-06T05:02:21.174Z,4.25
2022-12-06T05:07:23.303Z,4.31
2022-12-06T05:12:24.082Z,4.25
2022-12-06T05:17:24.918Z,4.28
2022-12-06T05:22:27.076Z,4.26
2022-12-06T05:27:31.607Z,4.32
2022-12-06T05:32:35.727Z,4.39
2022-12-06T05:37:37.920Z,4.33
2022-12-06T05:42:40.945Z,4.24
2022-12-06T05:47:41.770Z,4.32
2022-12-06T05:52:43.944Z,4.30
2022-12-06T05:57:47.413Z,4.35
2022-12-06T06:02:50.081Z,4.25
2022-12-06T06:07:52.415Z,4.14
2022-12-06T06:12:53.915Z,4.23
2022-12-06T06:17:55.168Z,4.21
2022-12-06T06:22:57.420Z,4.25
2022-12-06T06:27:58.268Z,4.24
2022-12-06T06:32:59.043Z,4.23
2022-12-06T06:38:01.774Z,4.15
2022-12-06T06:43:18.286Z,4.20
2022-12-06T06:48:19.347Z,4.22
2022-12-06T06:53:21.751Z,4.18
2022-12-06T06:58:22.693Z,4.14
2022-12-06T07:03:24.848Z,4.16
2022-12-06T07:08:27.843Z,4.15
2022-12-06T07:13:29.883Z,4.10
2022-12-06T07:18:31.014Z,4.16
2022-12-06T07:23:34.416Z,4.26
2022-12-06T07:28:36.765Z,4.09
2022-12-06T07:33:37.890Z,4.13
2022-12-06T07:38:40.267Z,4.13
2022-12-06T07:43:58.596Z,4.14
2022-12-06T07:48:59.382Z,4.11
2022-12-06T07:54:02.082Z,4.05
2022-12-06T07:59:03.343Z,4.00
2022-12-06T08:04:06.268Z,4.05
2022-12-06T08:09:09.411Z,4.04
2022-12-06T08:14:12.213Z,4.01
2022-12-06T08:19:13.070Z,3.97
2022-12-06T08:24:15.534Z,4.03
2022-12-06T08:29:16.875Z,4.12
2022-12-06T08:34:18.227Z,4.13
2022-12-06T08:39:20.477Z,4.17
2022-12-06T08:44:21.549Z,4.13
2022-12-06T08:49:26.283Z,4.18
2022-12-06T08:54:29.135Z,4.22
2022-12-06T08:59:30.031Z,4.18
2022-12-06T09:04:31.073Z,4.15
2022-12-06T09:09:33.316Z,4.09
2022-12-06T09:14:34.190Z,4.17
2022-12-06T09:19:35.304Z,4.21
2022-12-06T09:24:37.575Z,4.33
2022-12-06T09:29:40.791Z,4.41
2022-12-06T09:34:42.205Z,4.44
2022-12-06T09:39:53.648Z,4.40
2022-12-06T09:45:20.258Z,4.49
2022-12-06T09:50:27.595Z,4.52
2022-12-06T09:55:49.873Z,4.42
2022-12-06T10:00:59.384Z,4.41
2022-12-06T10:06:02.905Z,4.50
2022-12-06T10:11:16.158Z,4.51
2022-12-06T10:16:28.107Z,4.42
2022-12-06T10:21:41.684Z,4.23
2022-12-06T10:26:50.047Z,4.30
2022-12-06T10:31:58.263Z,4.31
2022-12-06T10:37:08.526Z,4.23
2022-12-06T10:42:16.666Z,4.08
2022-12-06T10:47:22.491Z,4.04
2022-12-06T10:52:35.987Z,4.03
2022-12-06T10:57:45.825Z,4.01
2022-12-06T11:02:56.171Z,4.09
2022-12-06T11:08:04.359Z,4.09
2022-12-06T11:13:21.335Z,4.11
2022-12-06T11:18:23.481Z,3.99
2022-12-06T11:23:33.724Z,4.04
2022-12-06T11:28:39.100Z,4.04
2022-12-06T11:33:40.087Z,4.08
2022-12-06T11:38:44.051Z,4.03
2022-12-06T11:43:46.606Z,4.13
2022-12-06T11:48:48.066Z,4.15
2022-12-06T11:54:01.672Z,4.03
2022-12-06T11:59:22.544Z,3.97
2022-12-06T12:04:43.044Z,3.83
2022-12-06T12:09:55.092Z,3.81
2022-12-06T12:14:59.364Z,3.85
2022-12-06T12:20:04.044Z,3.80
2022-12-06T12:25:22.437Z,3.91
2022-12-06T12:30:28.335Z,3.89
2022-12-06T12:35:29.365Z,3.96
2022-12-06T12:40:35.190Z,3.89
2022-12-06T12:45:38.071Z,3.89
2022-12-06T12:50:38.964Z,3.84
2022-12-06T12:55:41.864Z,3.82
2022-12-06T13:00:49.565Z,3.75
2022-12-06T13:05:51.764Z,3.82
2022-12-06T13:10:59.235Z,3.70
2022-12-06T13:16:10.632Z,3.69
2022-12-06T13:21:22.691Z,3.56
2022-12-06T13:26:27.434Z,3.67
2022-12-06T13:31:36.430Z,3.73
2022-12-06T13:36:37.412Z,3.74
2022-12-06T13:42:13.662Z,3.62
2022-12-06T13:47:50.376Z,3.47
2022-12-06T13:53:05.408Z,3.33
2022-12-06T13:58:40.942Z,3.24
2022-12-06T14:03:43.444Z,3.20
2022-12-06T14:08:46.375Z,3.19
2022-12-06T14:13:48.895Z,3.16
2022-12-06T14:18:52.146Z,3.14
2022-12-06T14:23:53.336Z,3.17
2022-12-06T14:28:56.575Z,3.18
2022-12-06T14:33:59.082Z,3.14
2022-12-06T14:39:02.814Z,3.27
2022-12-06T14:44:12.336Z,3.17
2022-12-06T14:49:38.440Z,3.21
2022-12-06T14:54:43.984Z,3.22
2022-12-06T15:00:14.370Z,3.28
2022-12-06T15:05:34.984Z,3.29
2022-12-06T15:10:35.814Z,3.25
2022-12-06T15:15:39.862Z,3.30
2022-12-06T15:20:42.096Z,3.21
2022-12-06T15:25:42.888Z,3.18
2022-12-06T15:30:43.826Z,3.22
2022-12-06T15:35:46.188Z,3.31
2022-12-06T15:40:50.696Z,3.23
2022-12-06T15:45:51.561Z,3.10
2022-12-06T15:50:55.169Z,3.02
2022-12-06T15:55:56.045Z,2.86
2022-12-06T16:00:58.929Z,2.73
2022-12-06T16:06:01.090Z,2.62
2022-12-06T16:11:17.125Z,2.58
2022-12-06T16:16:20.202Z,2.57
2022-12-06T16:21:25.820Z,2.45
2022-12-06T16:26:26.611Z,2.44
2022-12-06T16:31:27.944Z,2.38
2022-12-06T16:36:32.052Z,2.40
2022-12-06T16:41:35.066Z,2.53
2022-12-06T16:46:37.337Z,2.45
2022-12-06T16:51:39.479Z,2.39
2022-12-06T16:56:41.817Z,2.41
2022-12-06T17:01:49.415Z,2.35
2022-12-06T17:06:51.685Z,2.36
2022-12-06T17:12:06.629Z,2.35
2022-12-06T17:17:07.842Z,2.67
2022-12-06T17:22:12.794Z,2.53
2022-12-06T17:27:14.884Z,2.36
2022-12-06T17:32:16.043Z,2.45
2022-12-06T17:37:18.258Z,2.38
2022-12-06T17:42:36.806Z,2.36
2022-12-06T17:47:37.596Z,2.25
2022-12-06T17:52:39.798Z,2.32
2022-12-06T17:57:40.658Z,2.20
2022-12-06T18:02:41.669Z,2.11
2022-12-06T18:07:44.025Z,2.16
2022-12-06T18:12:44.979Z,2.08
2022-12-06T18:17:45.793Z,2.04
2022-12-06T18:22:48.526Z,2.00
2022-12-06T18:27:49.779Z,1.99
2022-12-06T18:32:50.658Z,2.05
2022-12-06T18:37:52.954Z,1.93
2022-12-06T18:42:53.963Z,1.97
2022-12-06T18:47:55.001Z,2.00
2022-12-06T18:52:57.127Z,2.07
2022-12-06T18:57:58.491Z,2.09
2022-12-06T19:03:00.607Z,2.02
2022-12-06T19:08:03.383Z,2.03
2022-12-06T19:13:06.100Z,2.00
2022-12-06T19:18:07.085Z,2.04
2022-12-06T19:23:09.264Z,1.99
2022-12-06T19:28:10.201Z,2.02
2022-12-06T19:33:11.167Z,2.01
2022-12-06T19:38:13.367Z,2.02
2022-12-06T19:43:32.000Z,1.99
2022-12-06T19:48:32.883Z,1.98
2022-12-06T19:53:37.581Z,1.95
2022-12-06T19:58:38.903Z,1.96
2022-12-06T20:03:39.957Z,2.03
2022-12-06T20:08:42.569Z,1.93
2022-12-06T20:13:43.491Z,1.92
2022-12-06T20:18:44.350Z,1.94
2022-12-06T20:23:46.650Z,1.96
2022-12-06T20:28:49.009Z,1.92
2022-12-06T20:33:50.553Z,1.94
2022-12-06T20:38:53.831Z,1.98
2022-12-06T20:43:54.695Z,1.91
2022-12-06T20:48:56.498Z,1.88
2022-12-06T20:54:00.101Z,1.86
2022-12-06T20:59:02.962Z,1.81
2022-12-06T21:04:04.265Z,1.74
2022-12-06T21:09:06.844Z,1.79
2022-12-06T21:14:07.622Z,1.85
2022-12-06T21:19:11.808Z,1.85
2022-12-06T21:24:15.856Z,1.93
2022-12-06T21:29:17.851Z,1.93
2022-12-06T21:34:19.363Z,1.94
2022-12-06T21:39:21.511Z,2.00
2022-12-06T21:44:22.453Z,2.11
2022-12-06T21:49:23.390Z,2.11
2022-12-06T21:54:25.567Z,2.09
2022-12-06T21:59:26.930Z,2.18
2022-12-06T22:04:27.721Z,2.21
2022-12-06T22:09:29.931Z,2.18
2022-12-06T22:14:30.999Z,2.22
2022-12-06T22:19:31.920Z,2.19
2022-12-06T22:24:34.354Z,2.27
2022-12-06T22:29:35.163Z,2.25
2022-12-06T22:34:35.957Z,2.31
2022-12-06T22:39:38.123Z,2.35
2022-12-06T22:44:38.897Z,2.38
2022-12-06T22:49:39.670Z,2.37
2022-12-06T22:54:41.867Z,2.42
2022-12-06T22:59:42.664Z,2.45
2022-12-06T23:04:43.467Z,2.48
2022-12-06T23:09:45.758Z,2.51
2022-12-06T23:14:46.746Z,2.50
2022-12-06T23:19:47.657Z,2.51
2022-12-06T23:24:51.575Z,2.48
2022-12-06T23:29:52.420Z,2.52
2022-12-06T23:34:53.225Z,2.59
2022-12-06T23:39:55.439Z,2.51
2022-12-06T23:44:56.203Z,2.59
2022-12-06T23:49:56.969Z,2.63
2022-12-06T23:54:59.742Z,2.62
